sensor_id;sensor_type;location;lat;lon;timestamp;pressure;altitude;pressure_sealevel;temperature;humidity
35307;BME280;21420;52.196;21.416;2023-02-22T00:00:58;100029.23;;;3.84;71.08
35307;BME280;21420;52.196;21.416;2023-02-22T00:03:30;100028.88;;;3.77;71.03
35307;BME280;21420;52.196;21.416;2023-02-22T00:06:02;100029.57;;;3.71;71.22
35307;BME280;21420;52.196;21.416;2023-02-22T00:08:35;100028.63;;;3.64;71.05
35307;BME280;21420;52.196;21.416;2023-02-22T00:11:07;100036.81;;;3.57;71.13
35307;BME280;21420;52.196;21.416;2023-02-22T00:13:37;100035.88;;;3.51;71.25
35307;BME280;21420;52.196;21.416;2023-02-22T00:16:05;100036.61;;;3.46;71.27
35307;BME280;21420;52.196;21.416;2023-02-22T00:18:32;100035.40;;;3.41;71.29
35307;BME280;21420;52.196;21.416;2023-02-22T00:21:00;100041.29;;;3.34;71.36
35307;BME280;21420;52.196;21.416;2023-02-22T00:23:29;100049.15;;;3.27;71.31
35307;BME280;21420;52.196;21.416;2023-02-22T00:25:58;100048.66;;;3.20;71.26
35307;BME280;21420;52.196;21.416;2023-02-22T00:28:25;100050.38;;;3.14;71.31
35307;BME280;21420;52.196;21.416;2023-02-22T00:30:52;100050.05;;;3.08;71.32
35307;BME280;21420;52.196;21.416;2023-02-22T00:33:21;100052.14;;;3.01;71.30
35307;BME280;21420;52.196;21.416;2023-02-22T00:35:48;100054.34;;;2.96;71.36
35307;BME280;21420;52.196;21.416;2023-02-22T00:38:17;100057.56;;;2.89;71.34
35307;BME280;21420;52.196;21.416;2023-02-22T00:40:44;100061.77;;;2.83;71.42
35307;BME280;21420;52.196;21.416;2023-02-22T00:43:12;100062.30;;;2.75;71.41
35307;BME280;21420;52.196;21.416;2023-02-22T00:45:40;100065.62;;;2.69;71.43
35307;BME280;21420;52.196;21.416;2023-02-22T00:48:08;100066.95;;;2.63;71.45
35307;BME280;21420;52.196;21.416;2023-02-22T00:50:36;100066.11;;;2.56;71.44
35307;BME280;21420;52.196;21.416;2023-02-22T00:53:04;100070.30;;;2.50;71.52
35307;BME280;21420;52.196;21.416;2023-02-22T00:55:33;100076.67;;;2.46;71.53
35307;BME280;21420;52.196;21.416;2023-02-22T00:58:01;100077.21;;;2.42;71.58
35307;BME280;21420;52.196;21.416;2023-02-22T01:00:34;100076.30;;;2.37;71.62
35307;BME280;21420;52.196;21.416;2023-02-22T01:03:04;100080.48;;;2.31;71.47
35307;BME280;21420;52.196;21.416;2023-02-22T01:05:33;100080.95;;;2.27;71.46
35307;BME280;21420;52.196;21.416;2023-02-22T01:08:01;100082.18;;;2.22;71.59
35307;BME280;21420;52.196;21.416;2023-02-22T01:10:29;100081.16;;;2.17;71.61
35307;BME280;21420;52.196;21.416;2023-02-22T01:12:58;100081.70;;;2.14;71.60
35307;BME280;21420;52.196;21.416;2023-02-22T01:15:27;100085.09;;;2.09;71.70
35307;BME280;21420;52.196;21.416;2023-02-22T01:17:57;100088.66;;;2.03;71.65
35307;BME280;21420;52.196;21.416;2023-02-22T01:20:26;100089.27;;;1.97;71.67
35307;BME280;21420;52.196;21.416;2023-02-22T01:22:55;100090.34;;;1.92;71.72
35307;BME280;21420;52.196;21.416;2023-02-22T01:25:25;100092.11;;;1.87;71.70
35307;BME280;21420;52.196;21.416;2023-02-22T01:27:54;100098.45;;;1.84;71.72
35307;BME280;21420;52.196;21.416;2023-02-22T01:30:24;100101.58;;;1.80;71.69
35307;BME280;21420;52.196;21.416;2023-02-22T01:32:52;100103.66;;;1.76;71.72
35307;BME280;21420;52.196;21.416;2023-02-22T01:35:23;100109.32;;;1.72;71.74
35307;BME280;21420;52.196;21.416;2023-02-22T01:37:51;100112.59;;;1.66;71.74
35307;BME280;21420;52.196;21.416;2023-02-22T01:40:54;100115.42;;;1.63;71.73
35307;BME280;21420;52.196;21.416;2023-02-22T01:43:33;100110.76;;;1.65;71.83
35307;BME280;21420;52.196;21.416;2023-02-22T01:46:02;100116.55;;;1.71;72.06
35307;BME280;21420;52.196;21.416;2023-02-22T01:48:38;100120.64;;;1.80;72.16
35307;BME280;21420;52.196;21.416;2023-02-22T01:51:19;100126.00;;;1.89;72.19
35307;BME280;21420;52.196;21.416;2023-02-22T01:54:08;100125.10;;;1.99;72.16
35307;BME280;21420;52.196;21.416;2023-02-22T01:56:46;100124.88;;;2.07;72.19
35307;BME280;21420;52.196;21.416;2023-02-22T01:59:18;100125.13;;;2.14;72.25
35307;BME280;21420;52.196;21.416;2023-02-22T02:01:46;100127.21;;;2.21;72.25
35307;BME280;21420;52.196;21.416;2023-02-22T02:04:20;100126.60;;;2.28;72.38
35307;BME280;21420;52.196;21.416;2023-02-22T02:06:55;100128.33;;;2.34;72.37
35307;BME280;21420;52.196;21.416;2023-02-22T02:09:32;100130.16;;;2.39;72.35
35307;BME280;21420;52.196;21.416;2023-02-22T02:12:02;100135.02;;;2.44;72.29
35307;BME280;21420;52.196;21.416;2023-02-22T02:14:31;100137.56;;;2.48;72.30
35307;BME280;21420;52.196;21.416;2023-02-22T02:16:59;100140.38;;;2.53;72.30
35307;BME280;21420;52.196;21.416;2023-02-22T02:27:23;100147.75;;;2.67;72.37
35307;BME280;21420;52.196;21.416;2023-02-22T02:43:32;100159.90;;;2.76;72.34
35307;BME280;21420;52.196;21.416;2023-02-22T02:46:11;100161.64;;;2.76;72.34
35307;BME280;21420;52.196;21.416;2023-02-22T02:48:43;100164.45;;;2.77;72.40
35307;BME280;21420;52.196;21.416;2023-02-22T02:51:13;100170.39;;;2.81;72.47
35307;BME280;21420;52.196;21.416;2023-02-22T02:53:45;100171.10;;;2.84;72.38
35307;BME280;21420;52.196;21.416;2023-02-22T02:56:13;100175.88;;;2.88;72.47
35307;BME280;21420;52.196;21.416;2023-02-22T02:58:59;100177.77;;;2.92;72.55
35307;BME280;21420;52.196;21.416;2023-02-22T03:01:56;100174.40;;;2.94;72.52
35307;BME280;21420;52.196;21.416;2023-02-22T03:24:33;100195.38;;;3.17;72.60
35307;BME280;21420;52.196;21.416;2023-02-22T03:27:11;100196.20;;;3.20;72.61
35307;BME280;21420;52.196;21.416;2023-02-22T03:29:44;100203.80;;;3.22;72.74
35307;BME280;21420;52.196;21.416;2023-02-22T03:32:16;100208.54;;;3.24;72.67
35307;BME280;21420;52.196;21.416;2023-02-22T03:34:49;100207.50;;;3.25;72.59
35307;BME280;21420;52.196;21.416;2023-02-22T03:37:26;100211.23;;;3.25;72.53
35307;BME280;21420;52.196;21.416;2023-02-22T03:39:55;100215.05;;;3.23;72.58
35307;BME280;21420;52.196;21.416;2023-02-22T03:42:30;100220.84;;;3.19;72.52
35307;BME280;21420;52.196;21.416;2023-02-22T03:45:02;100223.00;;;3.14;72.47
35307;BME280;21420;52.196;21.416;2023-02-22T03:47:43;100221.73;;;3.05;72.22
35307;BME280;21420;52.196;21.416;2023-02-22T03:50:17;100223.41;;;3.00;72.27
35307;BME280;21420;52.196;21.416;2023-02-22T03:52:46;100227.06;;;2.97;72.44
35307;BME280;21420;52.196;21.416;2023-02-22T03:55:20;100230.92;;;2.96;72.51
35307;BME280;21420;52.196;21.416;2023-02-22T03:57:53;100229.73;;;2.95;72.57
35307;BME280;21420;52.196;21.416;2023-02-22T04:00:24;100233.34;;;2.96;72.44
35307;BME280;21420;52.196;21.416;2023-02-22T04:02:53;100238.20;;;2.97;72.51
35307;BME280;21420;52.196;21.416;2023-02-22T04:05:20;100239.12;;;2.97;72.68
35307;BME280;21420;52.196;21.416;2023-02-22T04:07:47;100243.01;;;2.97;72.59
35307;BME280;21420;52.196;21.416;2023-02-22T04:10:15;100243.89;;;2.97;72.65
35307;BME280;21420;52.196;21.416;2023-02-22T04:12:42;100246.55;;;2.91;72.58
35307;BME280;21420;52.196;21.416;2023-02-22T04:15:13;100250.85;;;2.83;72.33
35307;BME280;21420;52.196;21.416;2023-02-22T04:17:41;100250.33;;;2.78;72.36
35307;BME280;21420;52.196;21.416;2023-02-22T04:20:12;100253.20;;;2.76;72.38
35307;BME280;21420;52.196;21.416;2023-02-22T04:22:46;100251.02;;;2.72;72.35
35307;BME280;21420;52.196;21.416;2023-02-22T04:25:13;100256.20;;;2.63;72.25
35307;BME280;21420;52.196;21.416;2023-02-22T04:27:40;100258.69;;;2.57;72.39
35307;BME280;21420;52.196;21.416;2023-02-22T04:30:08;100259.62;;;2.56;72.45
35307;BME280;21420;52.196;21.416;2023-02-22T04:32:36;100262.48;;;2.56;72.48
35307;BME280;21420;52.196;21.416;2023-02-22T04:35:04;100267.19;;;2.56;72.58
35307;BME280;21420;52.196;21.416;2023-02-22T04:37:32;100271.66;;;2.57;72.57
35307;BME280;21420;52.196;21.416;2023-02-22T04:40:04;100277.33;;;2.58;72.54
35307;BME280;21420;52.196;21.416;2023-02-22T04:42:35;100278.62;;;2.58;72.48
35307;BME280;21420;52.196;21.416;2023-02-22T04:45:04;100273.65;;;2.58;72.64
35307;BME280;21420;52.196;21.416;2023-02-22T04:47:31;100278.62;;;2.59;72.65
35307;BME280;21420;52.196;21.416;2023-02-22T04:49:58;100277.97;;;2.59;72.63
35307;BME280;21420;52.196;21.416;2023-02-22T04:52:26;100278.89;;;2.59;72.66
35307;BME280;21420;52.196;21.416;2023-02-22T04:54:53;100281.48;;;2.58;72.77
35307;BME280;21420;52.196;21.416;2023-02-22T04:57:21;100286.63;;;2.60;72.67
35307;BME280;21420;52.196;21.416;2023-02-22T04:59:49;100286.02;;;2.61;72.61
35307;BME280;21420;52.196;21.416;2023-02-22T05:02:17;100285.30;;;2.61;72.69
35307;BME280;21420;52.196;21.416;2023-02-22T05:04:44;100286.23;;;2.60;72.65
35307;BME280;21420;52.196;21.416;2023-02-22T05:07:11;100282.52;;;2.58;72.71
35307;BME280;21420;52.196;21.416;2023-02-22T05:09:38;100282.33;;;2.57;72.56
35307;BME280;21420;52.196;21.416;2023-02-22T05:12:05;100289.21;;;2.55;72.61
35307;BME280;21420;52.196;21.416;2023-02-22T05:14:32;100291.22;;;2.53;72.66
35307;BME280;21420;52.196;21.416;2023-02-22T05:17:01;100291.58;;;2.49;72.62
35307;BME280;21420;52.196;21.416;2023-02-22T05:19:28;100294.59;;;2.46;72.69
35307;BME280;21420;52.196;21.416;2023-02-22T05:21:55;100295.85;;;2.43;72.58
35307;BME280;21420;52.196;21.416;2023-02-22T05:24:22;100295.14;;;2.43;72.65
35307;BME280;21420;52.196;21.416;2023-02-22T05:26:49;100297.46;;;2.44;72.71
35307;BME280;21420;52.196;21.416;2023-02-22T05:29:17;100299.52;;;2.43;72.67
35307;BME280;21420;52.196;21.416;2023-02-22T05:31:44;100303.91;;;2.43;72.67
35307;BME280;21420;52.196;21.416;2023-02-22T05:34:11;100307.71;;;2.39;72.56
35307;BME280;21420;52.196;21.416;2023-02-22T05:36:40;100311.23;;;2.33;72.46
35307;BME280;21420;52.196;21.416;2023-02-22T05:39:07;100318.66;;;2.26;72.47
35307;BME280;21420;52.196;21.416;2023-02-22T05:41:34;100323.31;;;2.20;72.41
35307;BME280;21420;52.196;21.416;2023-02-22T05:44:01;100323.79;;;2.14;72.32
35307;BME280;21420;52.196;21.416;2023-02-22T05:46:28;100327.70;;;2.11;72.35
35307;BME280;21420;52.196;21.416;2023-02-22T05:48:55;100331.29;;;2.09;72.49
35307;BME280;21420;52.196;21.416;2023-02-22T05:51:22;100329.90;;;2.06;72.43
35307;BME280;21420;52.196;21.416;2023-02-22T05:53:49;100332.55;;;2.05;72.38
35307;BME280;21420;52.196;21.416;2023-02-22T05:56:22;100332.55;;;2.06;72.39
35307;BME280;21420;52.196;21.416;2023-02-22T05:58:50;100337.98;;;2.07;72.52
35307;BME280;21420;52.196;21.416;2023-02-22T06:01:17;100339.05;;;2.11;72.57
35307;BME280;21420;52.196;21.416;2023-02-22T06:03:49;100337.55;;;2.11;72.50
35307;BME280;21420;52.196;21.416;2023-02-22T06:06:17;100344.87;;;2.12;72.57
35307;BME280;21420;52.196;21.416;2023-02-22T06:08:48;100346.77;;;2.12;72.46
35307;BME280;21420;52.196;21.416;2023-02-22T06:11:15;100350.46;;;2.09;72.42
35307;BME280;21420;52.196;21.416;2023-02-22T06:13:48;100356.39;;;2.11;72.53
35307;BME280;21420;52.196;21.416;2023-02-22T06:16:15;100358.05;;;2.12;72.50
35307;BME280;21420;52.196;21.416;2023-02-22T06:18:42;100363.35;;;2.13;72.48
35307;BME280;21420;52.196;21.416;2023-02-22T06:21:09;100364.70;;;2.15;72.63
35307;BME280;21420;52.196;21.416;2023-02-22T06:23:36;100365.88;;;2.13;72.44
35307;BME280;21420;52.196;21.416;2023-02-22T06:26:03;100368.83;;;2.10;72.35
35307;BME280;21420;52.196;21.416;2023-02-22T06:28:30;100375.52;;;2.10;72.42
35307;BME280;21420;52.196;21.416;2023-02-22T06:30:56;100377.83;;;2.13;72.51
35307;BME280;21420;52.196;21.416;2023-02-22T06:33:23;100382.80;;;2.16;72.50
35307;BME280;21420;52.196;21.416;2023-02-22T06:35:50;100381.52;;;2.19;72.51
35307;BME280;21420;52.196;21.416;2023-02-22T06:38:23;100383.14;;;2.21;72.51
35307;BME280;21420;52.196;21.416;2023-02-22T06:40:50;100384.81;;;2.21;72.52
35307;BME280;21420;52.196;21.416;2023-02-22T06:43:17;100387.13;;;2.21;72.46
35307;BME280;21420;52.196;21.416;2023-02-22T06:45:44;100396.70;;;2.21;72.46
35307;BME280;21420;52.196;21.416;2023-02-22T06:48:12;100400.69;;;2.21;72.28
35307;BME280;21420;52.196;21.416;2023-02-22T06:50:39;100398.48;;;2.20;72.38
35307;BME280;21420;52.196;21.416;2023-02-22T06:53:06;100402.59;;;2.20;72.42
35307;BME280;21420;52.196;21.416;2023-02-22T06:55:34;100405.02;;;2.19;72.27
35307;BME280;21420;52.196;21.416;2023-02-22T06:58:02;100411.39;;;2.22;72.37
35307;BME280;21420;52.196;21.416;2023-02-22T07:00:30;100418.05;;;2.20;72.41
35307;BME280;21420;52.196;21.416;2023-02-22T07:02:58;100419.98;;;2.20;72.32
35307;BME280;21420;52.196;21.416;2023-02-22T07:05:27;100420.16;;;2.18;72.29
35307;BME280;21420;52.196;21.416;2023-02-22T07:08:01;100427.42;;;2.17;72.32
35307;BME280;21420;52.196;21.416;2023-02-22T07:10:31;100430.23;;;2.16;72.34
35307;BME280;21420;52.196;21.416;2023-02-22T07:12:59;100430.92;;;2.18;72.51
35307;BME280;21420;52.196;21.416;2023-02-22T07:15:28;100437.56;;;2.21;72.43
35307;BME280;21420;52.196;21.416;2023-02-22T07:17:55;100441.70;;;2.22;72.33
35307;BME280;21420;52.196;21.416;2023-02-22T07:20:24;100441.79;;;2.26;72.35
35307;BME280;21420;52.196;21.416;2023-02-22T07:22:51;100443.08;;;2.29;72.40
35307;BME280;21420;52.196;21.416;2023-02-22T07:25:18;100446.98;;;2.33;72.35
35307;BME280;21420;52.196;21.416;2023-02-22T07:27:46;100444.15;;;2.39;72.37
35307;BME280;21420;52.196;21.416;2023-02-22T07:30:19;100447.20;;;2.44;72.50
35307;BME280;21420;52.196;21.416;2023-02-22T07:32:46;100448.42;;;2.49;72.48
35307;BME280;21420;52.196;21.416;2023-02-22T07:35:20;100447.90;;;2.52;72.29
35307;BME280;21420;52.196;21.416;2023-02-22T07:37:47;100446.52;;;2.57;72.46
35307;BME280;21420;52.196;21.416;2023-02-22T07:40:15;100439.23;;;2.64;72.53
35307;BME280;21420;52.196;21.416;2023-02-22T07:45:17;100440.11;;;2.76;72.42
35307;BME280;21420;52.196;21.416;2023-02-22T07:47:47;100439.38;;;2.82;72.44
35307;BME280;21420;52.196;21.416;2023-02-22T07:50:16;100438.25;;;2.89;72.53
35307;BME280;21420;52.196;21.416;2023-02-22T07:52:45;100436.40;;;2.95;72.53
35307;BME280;21420;52.196;21.416;2023-02-22T07:55:17;100437.29;;;2.99;72.45
35307;BME280;21420;52.196;21.416;2023-02-22T07:57:46;100439.02;;;3.04;72.27
35307;BME280;21420;52.196;21.416;2023-02-22T08:00:27;100442.29;;;3.08;72.40
35307;BME280;21420;52.196;21.416;2023-02-22T08:02:55;100441.07;;;3.11;72.38
35307;BME280;21420;52.196;21.416;2023-02-22T08:05:24;100442.54;;;3.11;72.27
35307;BME280;21420;52.196;21.416;2023-02-22T08:07:51;100443.76;;;3.14;72.22
35307;BME280;21420;52.196;21.416;2023-02-22T08:10:22;100442.48;;;3.17;72.20
35307;BME280;21420;52.196;21.416;2023-02-22T08:12:50;100444.84;;;3.20;72.20
35307;BME280;21420;52.196;21.416;2023-02-22T08:17:47;100444.52;;;3.19;72.02
35307;BME280;21420;52.196;21.416;2023-02-22T08:20:14;100442.28;;;3.22;72.05
35307;BME280;21420;52.196;21.416;2023-02-22T08:22:45;100442.23;;;3.27;72.04
35307;BME280;21420;52.196;21.416;2023-02-22T08:25:14;100445.70;;;3.37;72.16
35307;BME280;21420;52.196;21.416;2023-02-22T08:27:42;100444.98;;;3.49;72.12
35307;BME280;21420;52.196;21.416;2023-02-22T08:30:15;100446.45;;;3.54;72.01
35307;BME280;21420;52.196;21.416;2023-02-22T08:32:44;100445.85;;;3.60;72.04
35307;BME280;21420;52.196;21.416;2023-02-22T08:35:13;100449.87;;;3.68;71.97
35307;BME280;21420;52.196;21.416;2023-02-22T08:37:48;100453.32;;;3.80;72.10
35307;BME280;21420;52.196;21.416;2023-02-22T08:40:19;100456.14;;;3.88;71.96
35307;BME280;21420;52.196;21.416;2023-02-22T08:42:45;100452.87;;;3.99;72.08
35307;BME280;21420;52.196;21.416;2023-02-22T08:45:12;100453.07;;;4.13;72.10
35307;BME280;21420;52.196;21.416;2023-02-22T08:47:40;100448.46;;;4.30;72.09
35307;BME280;21420;52.196;21.416;2023-02-22T08:50:08;100450.94;;;4.44;71.99
35307;BME280;21420;52.196;21.416;2023-02-22T08:52:36;100460.52;;;4.55;71.91
35307;BME280;21420;52.196;21.416;2023-02-22T08:55:03;100462.31;;;4.66;71.98
35307;BME280;21420;52.196;21.416;2023-02-22T08:57:30;100466.50;;;4.80;71.98
35307;BME280;21420;52.196;21.416;2023-02-22T08:59:57;100465.98;;;4.94;71.95
35307;BME280;21420;52.196;21.416;2023-02-22T09:02:24;100467.07;;;5.07;71.95
35307;BME280;21420;52.196;21.416;2023-02-22T09:04:51;100469.54;;;5.16;71.79
35307;BME280;21420;52.196;21.416;2023-02-22T09:07:18;100474.05;;;5.17;71.59
35307;BME280;21420;52.196;21.416;2023-02-22T09:09:45;100478.08;;;5.24;71.56
35307;BME280;21420;52.196;21.416;2023-02-22T09:12:13;100481.42;;;5.34;71.58
35307;BME280;21420;52.196;21.416;2023-02-22T09:14:40;100480.01;;;5.45;71.68
35307;BME280;21420;52.196;21.416;2023-02-22T09:17:08;100482.84;;;5.59;71.71
35307;BME280;21420;52.196;21.416;2023-02-22T09:19:35;100479.39;;;5.72;71.59
35307;BME280;21420;52.196;21.416;2023-02-22T09:22:02;100478.58;;;5.81;71.48
35307;BME280;21420;52.196;21.416;2023-02-22T09:24:29;100483.45;;;5.90;71.37
35307;BME280;21420;52.196;21.416;2023-02-22T09:26:56;100479.16;;;5.99;71.45
35307;BME280;21420;52.196;21.416;2023-02-22T09:29:26;100481.87;;;6.03;71.14
35307;BME280;21420;52.196;21.416;2023-02-22T09:31:55;100483.54;;;6.06;71.20
35307;BME280;21420;52.196;21.416;2023-02-22T09:34:23;100487.80;;;6.16;71.13
35307;BME280;21420;52.196;21.416;2023-02-22T09:36:56;100486.62;;;6.18;71.06
35307;BME280;21420;52.196;21.416;2023-02-22T09:39:23;100481.66;;;6.24;71.11
35307;BME280;21420;52.196;21.416;2023-02-22T09:44:48;100487.27;;;6.36;70.95
35307;BME280;21420;52.196;21.416;2023-02-22T09:47:22;100489.61;;;6.34;70.86
35307;BME280;21420;52.196;21.416;2023-02-22T09:52:38;100491.11;;;6.06;70.22
35307;BME280;21420;52.196;21.416;2023-02-22T09:55:16;100492.02;;;5.92;70.29
35307;BME280;21420;52.196;21.416;2023-02-22T09:57:46;100490.71;;;5.88;70.40
35307;BME280;21420;52.196;21.416;2023-02-22T10:00:14;100493.93;;;5.79;70.21
35307;BME280;21420;52.196;21.416;2023-02-22T10:02:51;100505.91;;;5.70;70.15
35307;BME280;21420;52.196;21.416;2023-02-22T10:05:25;100502.35;;;5.58;70.06
35307;BME280;21420;52.196;21.416;2023-02-22T10:08:00;100502.27;;;5.48;69.92
35307;BME280;21420;52.196;21.416;2023-02-22T10:10:35;100500.69;;;5.35;69.97
35307;BME280;21420;52.196;21.416;2023-02-22T10:13:28;100506.48;;;5.27;69.98
35307;BME280;21420;52.196;21.416;2023-02-22T10:22:07;100514.48;;;4.84;69.66
35307;BME280;21420;52.196;21.416;2023-02-22T10:32:50;100519.80;;;4.23;69.45
35307;BME280;21420;52.196;21.416;2023-02-22T10:35:25;100520.59;;;4.17;69.46
35307;BME280;21420;52.196;21.416;2023-02-22T10:38:01;100526.70;;;4.07;69.40
35307;BME280;21420;52.196;21.416;2023-02-22T10:40:32;100524.45;;;4.00;69.47
35307;BME280;21420;52.196;21.416;2023-02-22T10:43:05;100521.23;;;3.93;69.29
35307;BME280;21420;52.196;21.416;2023-02-22T10:45:34;100522.88;;;3.86;69.28
35307;BME280;21420;52.196;21.416;2023-02-22T10:48:06;100525.30;;;3.87;69.45
35307;BME280;21420;52.196;21.416;2023-02-22T10:50:36;100525.25;;;3.87;69.47
35307;BME280;21420;52.196;21.416;2023-02-22T10:53:04;100526.11;;;3.87;69.50
35307;BME280;21420;52.196;21.416;2023-02-22T10:55:31;100528.35;;;3.86;69.58
35307;BME280;21420;52.196;21.416;2023-02-22T10:58:02;100531.48;;;3.86;69.49
35307;BME280;21420;52.196;21.416;2023-02-22T11:00:35;100534.76;;;3.83;69.43
35307;BME280;21420;52.196;21.416;2023-02-22T11:05:42;100534.94;;;3.83;69.48
35307;BME280;21420;52.196;21.416;2023-02-22T11:10:42;100535.36;;;3.72;69.32
35307;BME280;21420;52.196;21.416;2023-02-22T11:13:24;100532.03;;;3.65;69.25
35307;BME280;21420;52.196;21.416;2023-02-22T11:16:00;100529.61;;;3.56;69.13
35307;BME280;21420;52.196;21.416;2023-02-22T11:18:33;100531.17;;;3.44;69.14
35307;BME280;21420;52.196;21.416;2023-02-22T11:21:04;100531.41;;;3.37;69.21
35307;BME280;21420;52.196;21.416;2023-02-22T11:23:35;100528.43;;;3.31;69.06
35307;BME280;21420;52.196;21.416;2023-02-22T11:26:12;100529.84;;;3.22;69.00
35307;BME280;21420;52.196;21.416;2023-02-22T11:28:47;100533.84;;;3.17;69.09
35307;BME280;21420;52.196;21.416;2023-02-22T11:31:17;100537.09;;;3.16;69.14
35307;BME280;21420;52.196;21.416;2023-02-22T11:36:33;100531.70;;;3.06;68.89
35307;BME280;21420;52.196;21.416;2023-02-22T11:42:20;100538.23;;;3.00;69.06
35307;BME280;21420;52.196;21.416;2023-02-22T11:48:06;100542.90;;;2.98;68.99
35307;BME280;21420;52.196;21.416;2023-02-22T11:56:15;100540.94;;;2.92;68.96
35307;BME280;21420;52.196;21.416;2023-02-22T12:17:42;100549.20;;;2.85;68.62
35307;BME280;21420;52.196;21.416;2023-02-22T12:20:45;100550.89;;;2.85;68.68
35307;BME280;21420;52.196;21.416;2023-02-22T12:23:18;100550.70;;;2.80;68.56
35307;BME280;21420;52.196;21.416;2023-02-22T12:28:35;100551.90;;;2.80;68.64
35307;BME280;21420;52.196;21.416;2023-02-22T12:36:28;100555.63;;;2.78;68.49
35307;BME280;21420;52.196;21.416;2023-02-22T12:39:02;100560.50;;;2.79;68.48
35307;BME280;21420;52.196;21.416;2023-02-22T12:41:39;100559.84;;;2.81;68.50
35307;BME280;21420;52.196;21.416;2023-02-22T12:44:14;100564.34;;;2.88;68.53
35307;BME280;21420;52.196;21.416;2023-02-22T12:46:52;100565.25;;;2.99;68.53
35307;BME280;21420;52.196;21.416;2023-02-22T12:49:39;100564.50;;;3.14;68.70
35307;BME280;21420;52.196;21.416;2023-02-22T12:54:55;100560.71;;;3.36;68.68
35307;BME280;21420;52.196;21.416;2023-02-22T12:59:58;100567.84;;;3.58;68.66
35307;BME280;21420;52.196;21.416;2023-02-22T13:05:50;100570.64;;;3.65;68.46
35307;BME280;21420;52.196;21.416;2023-02-22T13:21:45;100582.02;;;3.63;68.09
35307;BME280;21420;52.196;21.416;2023-02-22T13:27:17;100591.69;;;3.54;67.94
35307;BME280;21420;52.196;21.416;2023-02-22T13:29:46;100597.55;;;3.46;67.91
35307;BME280;21420;52.196;21.416;2023-02-22T13:32:41;100603.88;;;3.40;67.88
35307;BME280;21420;52.196;21.416;2023-02-22T13:43:54;100606.85;;;3.08;67.79
35307;BME280;21420;52.196;21.416;2023-02-22T13:52:01;100606.72;;;3.04;67.81
35307;BME280;21420;52.196;21.416;2023-02-22T13:55:06;100605.13;;;3.06;67.76
35307;BME280;21420;52.196;21.416;2023-02-22T13:57:39;100607.68;;;3.06;67.74
35307;BME280;21420;52.196;21.416;2023-02-22T14:03:04;100607.35;;;3.07;67.74
35307;BME280;21420;52.196;21.416;2023-02-22T14:16:22;100616.23;;;2.75;67.62
35307;BME280;21420;52.196;21.416;2023-02-22T14:19:01;100613.69;;;2.76;67.59
35307;BME280;21420;52.196;21.416;2023-02-22T14:21:33;100617.98;;;2.74;67.61
35307;BME280;21420;52.196;21.416;2023-02-22T14:24:11;100622.14;;;2.70;67.40
35307;BME280;21420;52.196;21.416;2023-02-22T14:27:01;100629.09;;;2.65;67.28
35307;BME280;21420;52.196;21.416;2023-02-22T14:29:29;100628.46;;;2.59;67.25
35307;BME280;21420;52.196;21.416;2023-02-22T14:32:06;100628.33;;;2.53;67.19
35307;BME280;21420;52.196;21.416;2023-02-22T14:37:27;100632.80;;;2.41;67.25
35307;BME280;21420;52.196;21.416;2023-02-22T14:39:57;100631.14;;;2.35;67.32
35307;BME280;21420;52.196;21.416;2023-02-22T14:42:33;100635.16;;;2.31;67.26
35307;BME280;21420;52.196;21.416;2023-02-22T14:45:22;100632.30;;;2.25;67.31
35307;BME280;21420;52.196;21.416;2023-02-22T14:50:49;100636.39;;;2.12;67.10
35307;BME280;21420;52.196;21.416;2023-02-22T14:56:08;100637.53;;;1.99;67.07
35307;BME280;21420;52.196;21.416;2023-02-22T14:59:15;100640.29;;;1.93;67.17
35307;BME280;21420;52.196;21.416;2023-02-22T15:01:36;100637.59;;;1.90;67.08
35307;BME280;21420;52.196;21.416;2023-02-22T15:04:27;100643.16;;;1.86;67.11
35307;BME280;21420;52.196;21.416;2023-02-22T15:06:57;100641.27;;;1.83;66.92
35307;BME280;21420;52.196;21.416;2023-02-22T15:09:27;100641.27;;;1.81;67.13
35307;BME280;21420;52.196;21.416;2023-02-22T15:14:30;100643.86;;;1.74;67.06
35307;BME280;21420;52.196;21.416;2023-02-22T15:17:00;100648.84;;;1.70;67.05
35307;BME280;21420;52.196;21.416;2023-02-22T15:19:31;100652.94;;;1.64;66.95
35307;BME280;21420;52.196;21.416;2023-02-22T15:22:00;100655.36;;;1.60;66.96
35307;BME280;21420;52.196;21.416;2023-02-22T15:24:32;100652.23;;;1.56;66.94
35307;BME280;21420;52.196;21.416;2023-02-22T15:27:05;100647.48;;;1.53;66.94
35307;BME280;21420;52.196;21.416;2023-02-22T15:29:43;100651.26;;;1.50;66.99
35307;BME280;21420;52.196;21.416;2023-02-22T15:35:19;100650.61;;;1.52;66.82
35307;BME280;21420;52.196;21.416;2023-02-22T15:40:27;100654.27;;;1.42;66.88
35307;BME280;21420;52.196;21.416;2023-02-22T15:43:06;100657.88;;;1.38;66.92
35307;BME280;21420;52.196;21.416;2023-02-22T15:45:36;100656.70;;;1.38;66.79
35307;BME280;21420;52.196;21.416;2023-02-22T15:48:10;100659.66;;;1.39;66.96
35307;BME280;21420;52.196;21.416;2023-02-22T15:50:37;100657.83;;;1.40;67.00
35307;BME280;21420;52.196;21.416;2023-02-22T15:53:16;100660.80;;;1.40;67.06
35307;BME280;21420;52.196;21.416;2023-02-22T15:55:58;100661.55;;;1.38;66.75
35307;BME280;21420;52.196;21.416;2023-02-22T15:58:27;100664.30;;;1.36;66.73
35307;BME280;21420;52.196;21.416;2023-02-22T16:01:01;100667.74;;;1.33;66.73
35307;BME280;21420;52.196;21.416;2023-02-22T16:03:39;100673.95;;;1.32;66.80
35307;BME280;21420;52.196;21.416;2023-02-22T16:06:36;100679.73;;;1.31;66.91
35307;BME280;21420;52.196;21.416;2023-02-22T16:09:13;100679.23;;;1.28;66.67
35307;BME280;21420;52.196;21.416;2023-02-22T16:11:43;100685.91;;;1.28;66.73
35307;BME280;21420;52.196;21.416;2023-02-22T16:14:39;100685.55;;;1.29;66.80